createdAt,value
2023-05-22T00:03:36.021Z,52.26
2023-05-22T00:06:58.398Z,52.39
2023-05-22T00:10:20.616Z,52.50
2023-05-22T00:13:43.199Z,52.58
2023-05-22T00:17:05.808Z,52.79
2023-05-22T00:20:27.944Z,52.79
2023-05-22T00:23:50.517Z,53.05
2023-05-22T00:27:13.037Z,52.97
2023-05-22T00:30:37.363Z,53.16
2023-05-22T00:34:00.907Z,53.34
2023-05-22T00:37:23.443Z,53.61
2023-05-22T00:40:46.286Z,53.36
2023-05-22T00:44:09.785Z,53.56
2023-05-22T00:47:32.485Z,53.65
2023-05-22T00:50:57.474Z,53.82
2023-05-22T00:54:20.587Z,53.75
2023-05-22T00:57:43.355Z,53.83
2023-05-22T01:01:07.264Z,53.91
2023-05-22T01:04:32.343Z,53.90
2023-05-22T01:07:54.767Z,54.15
2023-05-22T01:11:21.921Z,54.08
2023-05-22T01:14:53.997Z,54.29
2023-05-22T01:18:20.757Z,54.38
2023-05-22T01:21:47.658Z,54.38
2023-05-22T01:25:20.613Z,54.81
2023-05-22T01:28:49.785Z,54.75
2023-05-22T01:32:16.032Z,54.78
2023-05-22T01:35:40.693Z,54.89
2023-05-22T01:39:05.773Z,54.81
2023-05-22T01:42:28.064Z,54.89
2023-05-22T01:45:50.064Z,54.96
2023-05-22T01:49:12.115Z,55.19
2023-05-22T01:52:36.678Z,55.01
2023-05-22T01:56:02.095Z,55.02
2023-05-22T01:59:30.559Z,54.87
2023-05-22T02:02:55.762Z,55.23
2023-05-22T02:06:19.457Z,55.21
2023-05-22T02:09:43.161Z,55.05
2023-05-22T02:13:08.331Z,55.21
2023-05-22T02:16:30.859Z,55.15
2023-05-22T02:19:53.182Z,55.17
2023-05-22T02:23:16.389Z,55.60
2023-05-22T02:26:39.294Z,55.43
2023-05-22T02:30:01.653Z,55.57
2023-05-22T02:33:23.946Z,55.51
2023-05-22T02:36:47.325Z,55.78
2023-05-22T02:40:10.338Z,56.02
2023-05-22T02:43:32.815Z,55.86
2023-05-22T02:46:55.521Z,56.10
2023-05-22T02:50:18.278Z,56.14
2023-05-22T02:53:41.111Z,56.12
2023-05-22T02:57:03.893Z,56.20
2023-05-22T03:00:26.124Z,56.12
2023-05-22T03:03:50.766Z,56.25
2023-05-22T03:07:13.524Z,56.27
2023-05-22T03:10:35.800Z,56.34
2023-05-22T03:13:58.390Z,56.20
2023-05-22T03:17:20.462Z,56.42
2023-05-22T03:20:42.893Z,56.79
2023-05-22T03:24:06.056Z,56.76
2023-05-22T03:27:28.571Z,56.60
2023-05-22T03:30:50.847Z,56.69
2023-05-22T03:34:16.722Z,56.77
2023-05-22T03:37:40.878Z,57.00
2023-05-22T03:41:03.199Z,56.99
2023-05-22T03:44:25.469Z,57.04
2023-05-22T03:47:48.995Z,57.10
2023-05-22T03:51:11.069Z,57.16
2023-05-22T03:54:33.177Z,57.01
2023-05-22T03:57:56.229Z,57.11
2023-05-22T04:01:18.698Z,57.20
2023-05-22T04:04:41.097Z,57.35
2023-05-22T04:08:03.640Z,57.45
2023-05-22T04:11:26.510Z,57.43
2023-05-22T04:14:49.159Z,57.62
2023-05-22T04:18:11.987Z,57.43
2023-05-22T04:21:35.338Z,57.52
2023-05-22T04:24:57.966Z,57.66
2023-05-22T04:28:21.928Z,57.60
2023-05-22T04:31:44.462Z,57.65
2023-05-22T04:35:07.989Z,57.54
2023-05-22T04:38:30.053Z,57.51
2023-05-22T04:41:52.435Z,57.38
2023-05-22T04:45:14.668Z,57.45
2023-05-22T04:48:37.084Z,57.34
2023-05-22T04:52:04.153Z,57.17
2023-05-22T04:55:26.898Z,57.13
2023-05-22T04:58:49.987Z,57.07
2023-05-22T05:02:12.027Z,56.93
2023-05-22T05:05:34.414Z,56.86
2023-05-22T05:08:57.732Z,56.95
2023-05-22T05:12:20.200Z,56.87
2023-05-22T05:15:43.088Z,56.90
2023-05-22T05:19:06.062Z,56.92
2023-05-22T05:22:31.932Z,56.80
2023-05-22T05:25:55.205Z,56.84
2023-05-22T05:29:17.740Z,56.80
2023-05-22T05:33:03.363Z,56.86
2023-05-22T05:36:33.870Z,56.80
2023-05-22T05:39:56.068Z,56.71
2023-05-22T05:43:19.789Z,56.63
2023-05-22T05:46:42.845Z,56.52
2023-05-22T05:50:05.809Z,56.48
2023-05-22T05:53:29.320Z,56.28
2023-05-22T05:56:54.659Z,56.22
2023-05-22T06:00:17.897Z,56.24
2023-05-22T06:03:43.325Z,56.15
2023-05-22T06:09:18.543Z,56.05
2023-05-22T06:13:04.431Z,55.78
2023-05-22T06:16:31.562Z,55.60
2023-05-22T06:19:58.687Z,55.60
2023-05-22T06:23:26.120Z,55.41
2023-05-22T06:26:53.704Z,55.53
2023-05-22T06:30:35.742Z,55.37
2023-05-22T06:34:09.516Z,55.40
2023-05-22T06:37:38.101Z,55.45
2023-05-22T06:41:06.065Z,55.38
2023-05-22T06:44:33.355Z,55.31
2023-05-22T06:48:05.564Z,55.36
2023-05-22T06:51:35.123Z,55.15
2023-05-22T06:55:05.980Z,55.09
2023-05-22T06:58:37.993Z,54.95
2023-05-22T07:02:06.398Z,54.95
2023-05-22T07:05:59.737Z,54.88
2023-05-22T07:09:27.559Z,54.77
2023-05-22T07:12:54.289Z,54.85
2023-05-22T07:16:22.105Z,54.76
2023-05-22T07:19:50.736Z,54.64
2023-05-22T07:23:17.628Z,54.73
2023-05-22T07:26:46.780Z,54.66
2023-05-22T07:30:15.454Z,54.73
2023-05-22T07:33:46.725Z,54.51
2023-05-22T07:37:16.377Z,54.31
2023-05-22T07:40:45.066Z,54.19
2023-05-22T07:44:12.005Z,54.26
2023-05-22T07:47:39.506Z,54.25
2023-05-22T07:51:06.781Z,54.09
2023-05-22T07:54:34.264Z,54.03
2023-05-22T07:58:04.578Z,53.69
2023-05-22T08:01:35.429Z,53.29
2023-05-22T08:05:02.419Z,52.91
2023-05-22T08:08:31.696Z,52.72
2023-05-22T08:11:58.830Z,52.45
2023-05-22T08:15:25.694Z,52.15
2023-05-22T08:18:52.748Z,51.84
2023-05-22T08:22:19.760Z,51.60
2023-05-22T08:25:46.917Z,51.33
2023-05-22T08:29:13.810Z,51.00
2023-05-22T08:32:40.508Z,51.00
2023-05-22T08:36:08.016Z,51.00
2023-05-22T08:39:35.135Z,51.04
2023-05-22T08:43:01.993Z,50.72
2023-05-22T08:46:31.253Z,50.59
2023-05-22T08:50:00.728Z,50.40
2023-05-22T08:53:29.848Z,50.09
2023-05-22T08:56:57.870Z,49.88
2023-05-22T09:00:25.833Z,49.81
2023-05-22T09:03:52.925Z,49.37
2023-05-22T09:07:22.363Z,49.12
2023-05-22T09:10:49.472Z,48.69
2023-05-22T09:14:16.728Z,48.41
2023-05-22T09:17:44.367Z,48.18
2023-05-22T09:21:22.155Z,48.02
2023-05-22T09:24:59.665Z,47.64
2023-05-22T09:28:29.271Z,47.44
2023-05-22T09:31:55.798Z,47.21
2023-05-22T09:35:23.999Z,46.85
2023-05-22T09:38:51.009Z,46.84
2023-05-22T09:42:18.422Z,46.86
2023-05-22T09:45:45.199Z,46.26
2023-05-22T09:49:15.799Z,45.84
2023-05-22T09:52:46.287Z,45.82
2023-05-22T09:56:24.011Z,45.46
2023-05-22T10:00:02.332Z,45.33
2023-05-22T10:03:40.660Z,45.16
2023-05-22T10:07:07.884Z,44.74
2023-05-22T10:10:38.374Z,44.59
2023-05-22T10:14:07.105Z,44.51
2023-05-22T10:17:35.165Z,44.15
2023-05-22T10:21:03.735Z,43.29
2023-05-22T10:24:31.033Z,43.56
2023-05-22T10:27:59.102Z,43.18
2023-05-22T10:31:42.526Z,42.84
2023-05-22T10:35:27.494Z,42.55
2023-05-22T10:39:12.424Z,42.25
2023-05-22T10:42:40.678Z,41.90
2023-05-22T10:46:10.160Z,41.38
2023-05-22T10:49:37.140Z,41.39
2023-05-22T10:53:22.497Z,41.41
2023-05-22T10:56:49.196Z,41.16
2023-05-22T11:00:19.564Z,41.12
2023-05-22T11:04:00.241Z,40.75
2023-05-22T11:07:27.237Z,40.48
2023-05-22T11:10:59.397Z,40.06
2023-05-22T11:14:28.825Z,39.65
2023-05-22T11:17:56.942Z,39.64
2023-05-22T11:21:25.572Z,39.18
2023-05-22T11:24:52.893Z,39.15
2023-05-22T11:28:20.736Z,39.01
2023-05-22T11:31:49.245Z,38.71
2023-05-22T11:35:23.671Z,38.69
2023-05-22T11:38:50.639Z,38.25
2023-05-22T11:42:17.730Z,38.06
2023-05-22T11:45:44.479Z,37.96
2023-05-22T11:49:13.603Z,38.10
2023-05-22T11:52:42.580Z,37.70
2023-05-22T11:56:10.754Z,37.71
2023-05-22T11:59:38.135Z,37.57
2023-05-22T12:03:05.639Z,37.18
2023-05-22T12:06:33.754Z,36.97
2023-05-22T12:10:01.609Z,36.87
2023-05-22T12:13:30.796Z,36.50
2023-05-22T12:16:59.424Z,37.06
2023-05-22T12:20:30.373Z,36.72
2023-05-22T12:23:58.281Z,36.87
2023-05-22T12:27:24.920Z,36.43
2023-05-22T12:30:56.733Z,36.17
2023-05-22T12:34:24.103Z,36.14
2023-05-22T12:37:54.462Z,35.89
2023-05-22T12:41:22.135Z,35.59
2023-05-22T12:44:50.939Z,35.40
2023-05-22T12:48:18.203Z,34.97
2023-05-22T12:51:45.459Z,35.17
2023-05-22T12:55:13.940Z,35.03
2023-05-22T12:58:40.894Z,34.81
2023-05-22T13:02:08.721Z,34.52
2023-05-22T13:05:35.527Z,34.28
2023-05-22T13:09:02.402Z,34.06
2023-05-22T13:12:31.263Z,33.80
2023-05-22T13:15:58.111Z,33.88
2023-05-22T13:19:24.679Z,33.60
2023-05-22T13:22:51.413Z,33.32
2023-05-22T13:26:18.198Z,33.16
2023-05-22T13:29:45.428Z,32.99
2023-05-22T13:33:12.606Z,33.02
2023-05-22T13:36:39.384Z,32.94
2023-05-22T13:40:06.977Z,32.68
2023-05-22T13:43:33.935Z,32.30
2023-05-22T13:47:01.156Z,31.93
2023-05-22T13:50:28.466Z,32.01
2023-05-22T13:53:55.866Z,31.72
2023-05-22T13:57:26.826Z,31.66
2023-05-22T14:00:58.568Z,31.52
2023-05-22T14:04:26.264Z,31.34
2023-05-22T14:07:54.980Z,31.18
2023-05-22T14:11:22.601Z,30.97
2023-05-22T14:14:49.734Z,31.00
2023-05-22T14:18:19.910Z,30.61
2023-05-22T14:21:51.524Z,30.41
2023-05-22T14:25:18.168Z,30.48
2023-05-22T14:28:45.735Z,30.46
2023-05-22T14:32:12.353Z,30.54
2023-05-22T14:35:39.393Z,30.57
2023-05-22T14:39:06.510Z,30.56
2023-05-22T14:42:33.454Z,30.31
2023-05-22T14:46:01.261Z,30.19
2023-05-22T14:49:28.109Z,30.00
2023-05-22T14:52:54.974Z,29.88
2023-05-22T14:56:22.038Z,29.92
2023-05-22T14:59:49.026Z,29.79
2023-05-22T15:03:16.986Z,29.91
2023-05-22T15:06:43.960Z,29.80
2023-05-22T15:10:12.648Z,29.79
2023-05-22T15:13:41.974Z,29.50
2023-05-22T15:17:09.944Z,29.55
2023-05-22T15:20:36.697Z,29.56
2023-05-22T15:24:04.312Z,29.66
2023-05-22T15:27:31.035Z,29.34
2023-05-22T15:30:58.214Z,29.17
2023-05-22T15:34:25.143Z,28.95
2023-05-22T15:37:52.638Z,28.92
2023-05-22T15:41:19.889Z,28.90
2023-05-22T15:44:46.761Z,28.86
2023-05-22T15:48:13.494Z,28.87
2023-05-22T15:51:40.949Z,28.80
2023-05-22T15:55:09.344Z,28.75
2023-05-22T15:58:36.087Z,28.87
2023-05-22T16:02:03.023Z,28.83
2023-05-22T16:05:31.669Z,28.84
2023-05-22T16:08:58.267Z,28.83
2023-05-22T16:12:24.966Z,28.85
2023-05-22T16:15:51.896Z,28.73
2023-05-22T16:19:18.585Z,28.94
2023-05-22T16:22:48.576Z,28.94
2023-05-22T16:26:16.117Z,29.22
2023-05-22T16:29:43.424Z,29.23
2023-05-22T16:33:11.277Z,29.22
2023-05-22T16:36:37.955Z,29.29
2023-05-22T16:40:05.116Z,29.61
2023-05-22T16:43:32.053Z,29.63
2023-05-22T16:46:59.545Z,29.74
2023-05-22T16:50:26.192Z,29.68
2023-05-22T16:53:53.364Z,29.71
2023-05-22T16:57:20.241Z,29.79
2023-05-22T17:00:47.884Z,29.84
2023-05-22T17:04:16.054Z,30.12
2023-05-22T17:07:42.895Z,30.04
2023-05-22T17:11:09.249Z,30.08
2023-05-22T17:14:36.220Z,30.25
2023-05-22T17:18:03.306Z,30.45
2023-05-22T17:21:32.417Z,30.59
2023-05-22T17:24:59.179Z,30.69
2023-05-22T17:28:26.127Z,30.92
2023-05-22T17:31:53.054Z,31.04
2023-05-22T17:35:20.457Z,31.17
2023-05-22T17:38:47.404Z,31.52
2023-05-22T17:42:14.249Z,31.55
2023-05-22T17:45:42.107Z,31.64
2023-05-22T17:49:09.080Z,31.95
2023-05-22T17:52:38.044Z,32.05
2023-05-22T17:56:05.196Z,32.27
2023-05-22T17:59:34.243Z,32.34
2023-05-22T18:03:01.533Z,32.55
2023-05-22T18:06:28.509Z,32.72
2023-05-22T18:09:55.713Z,33.04
2023-05-22T18:13:22.871Z,33.16
2023-05-22T18:16:50.040Z,33.25
2023-05-22T18:20:20.188Z,33.65
2023-05-22T18:23:46.896Z,33.76
2023-05-22T18:27:16.217Z,34.07
2023-05-22T18:30:44.901Z,34.41
2023-05-22T18:34:11.776Z,34.44
2023-05-22T18:37:38.544Z,34.69
2023-05-22T18:41:06.400Z,34.84
2023-05-22T18:44:36.634Z,35.02
2023-05-22T18:48:03.743Z,35.28
2023-05-22T18:51:31.934Z,35.60
2023-05-22T18:54:58.641Z,35.80
2023-05-22T18:58:25.459Z,35.93
2023-05-22T19:01:52.385Z,36.17
2023-05-22T19:05:19.264Z,36.41
2023-05-22T19:08:46.196Z,36.51
2023-05-22T19:12:13.714Z,36.69
2023-05-22T19:15:46.955Z,36.91
2023-05-22T19:19:15.039Z,37.11
2023-05-22T19:22:42.514Z,37.26
2023-05-22T19:26:09.351Z,37.45
2023-05-22T19:29:36.304Z,37.71
2023-05-22T19:33:03.969Z,37.82
2023-05-22T19:36:33.117Z,37.90
2023-05-22T19:40:00.191Z,38.27
2023-05-22T19:43:27.827Z,38.52
2023-05-22T19:46:54.903Z,38.64
2023-05-22T19:50:23.764Z,38.75
2023-05-22T19:53:50.398Z,38.98
2023-05-22T19:57:17.434Z,39.19
2023-05-22T20:00:47.306Z,39.43
2023-05-22T20:04:14.504Z,39.55
2023-05-22T20:07:41.810Z,39.91
2023-05-22T20:11:08.799Z,40.08
2023-05-22T20:14:35.776Z,40.25
2023-05-22T20:18:02.883Z,40.49
2023-05-22T20:21:30.359Z,40.55
2023-05-22T20:24:57.504Z,40.68
2023-05-22T20:28:24.651Z,40.89
2023-05-22T20:31:55.090Z,41.03
2023-05-22T20:35:24.293Z,41.23
2023-05-22T20:38:51.573Z,41.38
2023-05-22T20:42:18.587Z,41.59
2023-05-22T20:45:46.063Z,41.67
2023-05-22T20:49:13.960Z,41.89
2023-05-22T20:52:42.331Z,42.02
2023-05-22T20:56:10.541Z,42.16
2023-05-22T20:59:38.242Z,42.26
2023-05-22T21:03:05.512Z,42.47
2023-05-22T21:06:32.627Z,42.51
2023-05-22T21:09:59.741Z,42.74
2023-05-22T21:13:26.461Z,42.83
2023-05-22T21:16:53.806Z,42.87
2023-05-22T21:20:21.495Z,43.12
2023-05-22T21:23:50.127Z,43.30
2023-05-22T21:27:17.340Z,43.38
2023-05-22T21:30:44.190Z,43.36
2023-05-22T21:34:11.727Z,43.52
2023-05-22T21:37:40.211Z,43.57
2023-05-22T21:41:08.304Z,43.86
2023-05-22T21:44:36.146Z,43.92
2023-05-22T21:48:05.487Z,44.03
2023-05-22T21:51:32.300Z,44.27
2023-05-22T21:55:01.579Z,44.44
2023-05-22T21:58:28.777Z,44.69
2023-05-22T22:01:56.002Z,44.88
2023-05-22T22:05:23.381Z,45.11
2023-05-22T22:08:50.817Z,45.22
2023-05-22T22:12:17.614Z,45.43
2023-05-22T22:15:46.825Z,45.58
2023-05-22T22:19:16.168Z,45.71
2023-05-22T22:22:43.410Z,45.87
2023-05-22T22:26:10.229Z,46.02
2023-05-22T22:29:37.894Z,46.29
2023-05-22T22:33:04.735Z,46.38
2023-05-22T22:36:32.025Z,46.36
2023-05-22T22:39:58.961Z,46.58
2023-05-22T22:43:26.015Z,46.74
2023-05-22T22:46:55.968Z,46.89
2023-05-22T22:50:28.537Z,47.04
2023-05-22T22:53:55.185Z,47.14
2023-05-22T22:57:21.913Z,47.38
2023-05-22T23:00:48.782Z,47.60
2023-05-22T23:04:16.177Z,47.77
2023-05-22T23:07:44.618Z,47.98
2023-05-22T23:11:11.204Z,48.28
2023-05-22T23:14:39.035Z,48.46
2023-05-22T23:18:06.303Z,48.53
2023-05-22T23:21:34.012Z,48.88
2023-05-22T23:25:01.426Z,48.85
2023-05-22T23:28:28.732Z,49.00
2023-05-22T23:31:57.058Z,49.29
2023-05-22T23:35:27.158Z,49.33
2023-05-22T23:38:54.889Z,49.40
2023-05-22T23:42:21.928Z,49.55
2023-05-22T23:45:48.901Z,49.76
2023-05-22T23:49:16.144Z,49.69
2023-05-22T23:52:43.096Z,49.79
2023-05-22T23:56:10.515Z,50.01
2023-05-22T23:59:38.060Z,50.24
